Time;durP1;ratioP1;P1;durP2;ratioP2;P2;SDS_P1;SDS_P2;PMS_P1;PMS_P2;Temp;Humidity;BMP_temperature;BMP_pressure;BME280_temperature;BME280_humidity;BME280_pressure;Samples;Min_cycle;Max_cycle;Signal;HPM_P1;HPM_P2
2021/09/13 00:00:05;;;;;;;11.30;5.73;;;;;;;;;;5074743;28;20525;-70
2021/09/13 00:02:32;;;;;;;6.17;5.50;;;;;;;;;;5075019;28;20442;-70
2021/09/13 00:04:59;;;;;;;6.03;5.53;;;;;;;;;;5075223;28;20443;-70
2021/09/13 00:07:28;;;;;;;7.83;5.87;;;;;;;;;;5074942;28;20930;-70
2021/09/13 00:09:55;;;;;;;9.03;5.93;;;;;;;;;;5075106;28;20947;-70
2021/09/13 00:12:22;;;;;;;9.10;6.40;;;;;;;;;;5074532;28;20964;-71
2021/09/13 00:14:50;;;;;;;10.63;6.57;;;;;;;;;;5074779;28;20446;-70
2021/09/13 00:17:17;;;;;;;7.40;6.70;;;;;;;;;;5074408;28;20532;-70
2021/09/13 00:19:44;;;;;;;8.60;5.70;;;;;;;;;;5074245;28;20478;-70
2021/09/13 00:22:11;;;;;;;9.97;6.77;;;;;;;;;;5074803;28;20932;-70
2021/09/13 00:24:40;;;;;;;7.70;6.50;;;;;;;;;;5073911;28;20442;-70
2021/09/13 00:27:07;;;;;;;8.20;6.27;;;;;;;;;;5074071;28;20476;-70
2021/09/13 00:29:34;;;;;;;7.03;6.33;;;;;;;;;;5074611;28;20939;-70
2021/09/13 00:32:01;;;;;;;9.03;6.37;;;;;;;;;;5074387;28;20446;-70
2021/09/13 00:34:29;;;;;;;9.43;6.00;;;;;;;;;;5074045;28;20941;-70
2021/09/13 00:36:56;;;;;;;8.30;6.73;;;;;;;;;;5074346;28;20451;-70
2021/09/13 00:39:23;;;;;;;11.97;7.20;;;;;;;;;;5074626;28;20489;-70
2021/09/13 00:41:52;;;;;;;7.10;6.40;;;;;;;;;;5073957;28;20467;-71
2021/09/13 00:44:19;;;;;;;7.83;6.67;;;;;;;;;;5074189;28;20442;-71
2021/09/13 00:46:46;;;;;;;9.87;7.27;;;;;;;;;;5074176;28;20438;-70
2021/09/13 00:49:13;;;;;;;11.30;6.60;;;;;;;;;;5073929;28;20483;-70
2021/09/13 00:51:41;;;;;;;8.20;6.43;;;;;;;;;;5074142;28;20447;-70
2021/09/13 00:54:08;;;;;;;11.13;7.10;;;;;;;;;;5073529;28;20445;-70
2021/09/13 00:56:35;;;;;;;7.57;6.57;;;;;;;;;;5074045;28;20444;-70
2021/09/13 00:59:04;;;;;;;7.60;6.40;;;;;;;;;;5073559;28;20975;-70
2021/09/13 01:01:31;;;;;;;7.73;6.50;;;;;;;;;;5073782;28;20446;-70
2021/09/13 01:03:58;;;;;;;8.67;7.00;;;;;;;;;;5073914;28;20446;-70
2021/09/13 01:06:25;;;;;;;6.43;5.93;;;;;;;;;;5073724;28;20445;-70
2021/09/13 01:08:54;;;;;;;7.50;5.80;;;;;;;;;;5073624;28;20442;-70
2021/09/13 01:11:21;;;;;;;6.63;5.87;;;;;;;;;;5073689;28;20447;-70
2021/09/13 01:13:48;;;;;;;9.63;6.77;;;;;;;;;;5073755;28;20448;-70
2021/09/13 01:16:17;;;;;;;14.07;6.87;;;;;;;;;;5073940;28;20502;-70
2021/09/13 01:18:44;;;;;;;8.33;6.40;;;;;;;;;;5074040;28;20831;-70
2021/09/13 01:21:12;;;;;;;10.07;6.90;;;;;;;;;;5073666;28;20442;-70
2021/09/13 01:23:40;;;;;;;9.17;7.20;;;;;;;;;;5073350;28;20444;-70
2021/09/13 01:26:07;;;;;;;11.70;7.73;;;;;;;;;;5073249;28;20962;-70
2021/09/13 01:28:35;;;;;;;13.67;8.27;;;;;;;;;;5073368;28;20937;-70
2021/09/13 01:31:02;;;;;;;8.80;6.77;;;;;;;;;;5073928;28;20435;-70
2021/09/13 01:33:29;;;;;;;8.57;7.67;;;;;;;;;;5073685;28;20854;-70
2021/09/13 01:35:56;;;;;;;8.53;7.57;;;;;;;;;;5072875;28;20461;-70
2021/09/13 01:38:25;;;;;;;10.57;7.87;;;;;;;;;;5073399;28;20445;-69
2021/09/13 01:40:54;;;;;;;8.53;7.50;;;;;;;;;;5073347;28;20448;-70
2021/09/13 01:43:21;;;;;;;8.20;7.40;;;;;;;;;;5073822;28;20507;-69
2021/09/13 01:45:48;;;;;;;11.80;8.67;;;;;;;;;;5074082;28;20443;-70
2021/09/13 01:48:15;;;;;;;10.63;7.00;;;;;;;;;;5073365;28;20447;-70
2021/09/13 01:50:43;;;;;;;8.00;7.20;;;;;;;;;;5073551;28;20477;-69
2021/09/13 01:53:10;;;;;;;8.93;8.03;;;;;;;;;;5073336;28;20451;-70
2021/09/13 01:55:37;;;;;;;9.90;8.40;;;;;;;;;;5072999;28;20448;-70
2021/09/13 01:58:05;;;;;;;9.73;8.30;;;;;;;;;;5073348;28;20877;-70
2021/09/13 02:00:33;;;;;;;8.83;8.03;;;;;;;;;;5073167;28;20478;-70
2021/09/13 02:03:00;;;;;;;14.17;9.50;;;;;;;;;;5073398;28;20464;-70
2021/09/13 02:05:27;;;;;;;11.00;8.87;;;;;;;;;;5073440;28;20443;-70
2021/09/13 02:07:54;;;;;;;12.93;10.33;;;;;;;;;;5072872;28;20463;-70
2021/09/13 02:10:21;;;;;;;9.20;8.30;;;;;;;;;;5072798;28;20457;-70
2021/09/13 02:12:49;;;;;;;14.83;9.00;;;;;;;;;;5073129;28;20440;-70
2021/09/13 02:15:17;;;;;;;11.27;9.10;;;;;;;;;;5073642;28;20438;-70
2021/09/13 02:17:45;;;;;;;11.63;10.40;;;;;;;;;;5073048;28;20447;-69
2021/09/13 02:20:13;;;;;;;11.83;8.23;;;;;;;;;;5073162;28;20486;-69
2021/09/13 02:22:40;;;;;;;9.37;8.17;;;;;;;;;;5072797;28;20442;-70
2021/09/13 02:25:09;;;;;;;10.80;8.40;;;;;;;;;;5072979;28;20802;-70
2021/09/13 02:27:36;;;;;;;11.90;9.00;;;;;;;;;;5072974;28;20442;-70
2021/09/13 02:30:03;;;;;;;16.27;9.00;;;;;;;;;;5073155;28;20540;-70
2021/09/13 02:32:32;;;;;;;9.80;8.80;;;;;;;;;;5072956;28;20446;-69
2021/09/13 02:35:04;;;;;;;10.63;9.53;;;;;;;;;;5073079;28;20433;-69
2021/09/13 02:37:32;;;;;;;9.03;8.20;;;;;;;;;;5072726;28;20916;-69
2021/09/13 02:39:59;;;;;;;12.87;10.53;;;;;;;;;;5072798;28;20473;-69
2021/09/13 02:42:26;;;;;;;12.47;9.23;;;;;;;;;;5073182;28;20438;-69
2021/09/13 02:44:53;;;;;;;11.93;8.90;;;;;;;;;;5072996;28;20441;-70
2021/09/13 02:47:21;;;;;;;9.67;8.73;;;;;;;;;;5072752;28;20442;-69
2021/09/13 02:49:49;;;;;;;12.73;9.57;;;;;;;;;;5075589;28;20470;-69
2021/09/13 02:52:17;;;;;;;11.73;8.43;;;;;;;;;;5076553;28;20444;-69
2021/09/13 02:54:44;;;;;;;13.60;8.30;;;;;;;;;;5075919;28;20539;-69
2021/09/13 02:57:11;;;;;;;10.77;8.20;;;;;;;;;;5076277;28;20441;-69
2021/09/13 02:59:38;;;;;;;12.23;8.40;;;;;;;;;;5075843;28;20481;-69
2021/09/13 03:02:06;;;;;;;9.70;8.17;;;;;;;;;;5076128;28;20450;-69
2021/09/13 03:04:33;;;;;;;11.23;8.30;;;;;;;;;;5076157;28;20437;-69
2021/09/13 03:07:01;;;;;;;10.10;8.67;;;;;;;;;;5076711;28;20436;-70
2021/09/13 03:09:29;;;;;;;11.47;9.00;;;;;;;;;;5076232;28;20451;-70
2021/09/13 03:11:56;;;;;;;14.40;8.63;;;;;;;;;;5076295;28;20445;-69
2021/09/13 03:14:23;;;;;;;10.30;7.97;;;;;;;;;;5075958;28;20433;-70
2021/09/13 03:16:51;;;;;;;12.40;8.70;;;;;;;;;;5075904;28;20444;-70
2021/09/13 03:19:18;;;;;;;11.17;9.00;;;;;;;;;;5075857;28;20472;-70
2021/09/13 03:21:45;;;;;;;8.83;8.00;;;;;;;;;;5075796;28;20444;-70
2021/09/13 03:24:14;;;;;;;9.80;8.00;;;;;;;;;;5075966;28;20443;-69
2021/09/13 03:26:41;;;;;;;8.80;8.00;;;;;;;;;;5075947;28;20444;-70
2021/09/13 03:29:08;;;;;;;11.37;8.13;;;;;;;;;;5075718;28;20898;-70
2021/09/13 03:31:36;;;;;;;10.70;8.20;;;;;;;;;;5075638;28;20445;-70
2021/09/13 03:34:03;;;;;;;8.67;7.77;;;;;;;;;;5075276;28;20455;-72
2021/09/13 03:36:30;;;;;;;13.30;7.73;;;;;;;;;;5076325;28;20445;-70
2021/09/13 03:38:57;;;;;;;8.03;7.00;;;;;;;;;;5075381;28;20814;-70
2021/09/13 03:41:26;;;;;;;8.13;7.33;;;;;;;;;;5075406;28;20495;-70
2021/09/13 03:43:53;;;;;;;8.17;7.37;;;;;;;;;;5075503;28;20791;-69
2021/09/13 03:46:21;;;;;;;8.70;6.80;;;;;;;;;;5075455;28;20795;-69
2021/09/13 03:48:48;;;;;;;9.07;7.70;;;;;;;;;;5074963;28;20437;-69
2021/09/13 03:51:16;;;;;;;8.53;7.57;;;;;;;;;;5075365;28;20527;-69
2021/09/13 03:53:43;;;;;;;10.13;7.60;;;;;;;;;;5075344;28;20919;-69
2021/09/13 03:56:11;;;;;;;9.30;8.40;;;;;;;;;;5075251;28;20791;-69
2021/09/13 03:58:39;;;;;;;12.87;7.93;;;;;;;;;;5075057;28;20441;-69
2021/09/13 04:01:06;;;;;;;10.80;7.97;;;;;;;;;;5074922;28;20476;-69
2021/09/13 04:03:39;;;;;;;12.23;7.43;;;;;;;;;;5075250;28;20442;-70
2021/09/13 04:06:07;;;;;;;10.33;8.30;;;;;;;;;;5075090;28;20428;-70
2021/09/13 04:08:48;;;;;;;8.20;7.50;;;;;;;;;;5074527;28;20442;-70
2021/09/13 04:11:22;;;;;;;8.97;7.73;;;;;;;;;;5074551;28;20445;-69
2021/09/13 04:13:50;;;;;;;11.70;8.30;;;;;;;;;;5075344;28;20429;-69
2021/09/13 04:16:18;;;;;;;10.70;8.00;;;;;;;;;;5074725;28;20442;-70
2021/09/13 04:18:45;;;;;;;13.53;7.97;;;;;;;;;;5075187;28;20447;-69
2021/09/13 04:21:13;;;;;;;11.80;9.30;;;;;;;;;;5074726;28;20499;-69
2021/09/13 04:23:40;;;;;;;11.67;10.50;;;;;;;;;;5074757;28;20540;-72
2021/09/13 04:26:07;;;;;;;12.53;9.30;;;;;;;;;;5074962;28;20543;-69
2021/09/13 04:28:34;;;;;;;14.70;10.07;;;;;;;;;;5074340;28;20796;-69
2021/09/13 04:31:03;;;;;;;10.77;8.60;;;;;;;;;;5072044;28;20445;-70
2021/09/13 04:33:30;;;;;;;9.17;8.37;;;;;;;;;;5072532;28;20448;-69
2021/09/13 04:35:57;;;;;;;10.53;8.47;;;;;;;;;;5073515;28;20448;-70
2021/09/13 04:38:24;;;;;;;11.80;9.03;;;;;;;;;;5073537;28;20449;-69
2021/09/13 04:40:51;;;;;;;11.70;8.30;;;;;;;;;;5072930;28;20477;-70
2021/09/13 04:43:19;;;;;;;12.77;10.07;;;;;;;;;;5073089;28;20446;-70
2021/09/13 04:45:46;;;;;;;12.13;9.80;;;;;;;;;;5072551;28;20446;-70
2021/09/13 04:48:14;;;;;;;9.70;8.70;;;;;;;;;;5073117;28;20441;-70
2021/09/13 04:50:41;;;;;;;9.40;8.33;;;;;;;;;;5073434;28;20975;-69
2021/09/13 04:53:09;;;;;;;13.07;9.57;;;;;;;;;;5073580;28;20791;-69
2021/09/13 04:55:37;;;;;;;12.70;9.37;;;;;;;;;;5073339;28;20447;-70
2021/09/13 04:58:05;;;;;;;10.90;9.17;;;;;;;;;;5073250;28;20543;-68
2021/09/13 05:00:32;;;;;;;11.37;10.03;;;;;;;;;;5083845;28;20571;-68
2021/09/13 05:02:59;;;;;;;13.73;9.07;;;;;;;;;;5093610;28;20953;-69
2021/09/13 05:05:28;;;;;;;20.70;11.50;;;;;;;;;;5092466;28;20435;-69
2021/09/13 05:07:55;;;;;;;14.50;11.93;;;;;;;;;;5092663;28;20440;-69
2021/09/13 05:10:22;;;;;;;12.83;11.30;;;;;;;;;;5092440;28;20444;-69
2021/09/13 05:12:49;;;;;;;14.90;10.00;;;;;;;;;;5092297;28;20443;-69
2021/09/13 05:15:16;;;;;;;14.20;11.27;;;;;;;;;;5092541;28;20523;-68
2021/09/13 05:17:44;;;;;;;15.93;10.77;;;;;;;;;;5093886;28;20443;-69
2021/09/13 05:20:11;;;;;;;16.13;10.97;;;;;;;;;;5093499;28;21014;-69
2021/09/13 05:22:40;;;;;;;13.00;11.13;;;;;;;;;;5094092;28;20791;-69
2021/09/13 05:25:08;;;;;;;14.03;10.47;;;;;;;;;;5093781;28;20432;-69
2021/09/13 05:27:35;;;;;;;14.80;12.00;;;;;;;;;;5093417;28;20443;-69
2021/09/13 05:30:03;;;;;;;12.27;10.33;;;;;;;;;;5093551;28;20457;-69
2021/09/13 05:32:30;;;;;;;14.50;11.40;;;;;;;;;;5093696;28;20506;-69
2021/09/13 05:34:58;;;;;;;11.70;10.50;;;;;;;;;;5093354;28;20445;-69
2021/09/13 05:37:25;;;;;;;21.57;11.17;;;;;;;;;;5093628;28;20439;-69
2021/09/13 05:39:53;;;;;;;13.40;11.37;;;;;;;;;;5093555;28;20482;-69
2021/09/13 05:42:21;;;;;;;13.90;10.60;;;;;;;;;;5093314;28;20962;-69
2021/09/13 05:44:48;;;;;;;13.13;11.80;;;;;;;;;;5093551;28;20443;-70
2021/09/13 05:47:15;;;;;;;12.03;10.77;;;;;;;;;;5093506;28;20451;-69
2021/09/13 05:49:42;;;;;;;13.73;11.00;;;;;;;;;;5093594;28;20489;-69
2021/09/13 05:52:10;;;;;;;15.47;11.60;;;;;;;;;;5093317;28;20445;-69
2021/09/13 05:54:37;;;;;;;13.20;11.90;;;;;;;;;;5093049;28;20935;-69
2021/09/13 05:57:05;;;;;;;12.67;10.50;;;;;;;;;;5093200;28;20446;-69
2021/09/13 05:59:33;;;;;;;16.47;10.07;;;;;;;;;;5093611;28;20454;-69
2021/09/13 06:02:00;;;;;;;12.30;10.70;;;;;;;;;;5093180;28;20480;-69
2021/09/13 06:04:29;;;;;;;13.80;11.30;;;;;;;;;;5092867;28;20442;-69
2021/09/13 06:06:56;;;;;;;13.60;11.90;;;;;;;;;;5092737;28;20461;-69
2021/09/13 06:09:24;;;;;;;12.47;10.37;;;;;;;;;;5092793;28;20926;-70
2021/09/13 06:11:51;;;;;;;14.73;12.20;;;;;;;;;;5093145;28;20513;-68
2021/09/13 06:14:19;;;;;;;11.90;10.70;;;;;;;;;;5093597;28;20938;-70
2021/09/13 06:16:46;;;;;;;14.43;12.07;;;;;;;;;;5093123;28;20436;-68
2021/09/13 06:19:14;;;;;;;12.93;10.70;;;;;;;;;;5093023;28;20443;-68
2021/09/13 06:21:41;;;;;;;14.80;11.20;;;;;;;;;;5092937;28;20481;-68
2021/09/13 06:24:08;;;;;;;13.60;12.20;;;;;;;;;;5094646;28;20447;-68
2021/09/13 06:26:35;;;;;;;18.00;12.47;;;;;;;;;;5096825;28;20451;-68
2021/09/13 06:29:02;;;;;;;16.20;13.23;;;;;;;;;;5097129;28;20957;-68
2021/09/13 06:31:31;;;;;;;14.40;11.60;;;;;;;;;;5096857;28;20934;-69
2021/09/13 06:33:58;;;;;;;23.77;12.47;;;;;;;;;;5096478;28;20449;-69
2021/09/13 06:36:26;;;;;;;16.20;12.70;;;;;;;;;;5096498;28;20450;-69
2021/09/13 06:38:53;;;;;;;17.70;10.80;;;;;;;;;;5096996;28;20444;-69
2021/09/13 06:41:21;;;;;;;17.90;12.57;;;;;;;;;;5096589;28;20485;-69
2021/09/13 06:43:48;;;;;;;17.67;11.70;;;;;;;;;;5096267;28;20447;-69
2021/09/13 06:46:21;;;;;;;14.33;10.60;;;;;;;;;;5096595;28;20445;-69
2021/09/13 06:48:50;;;;;;;18.23;10.50;;;;;;;;;;5096085;28;20452;-69
2021/09/13 06:51:18;;;;;;;31.03;11.27;;;;;;;;;;5096873;28;20520;-69
2021/09/13 06:53:45;;;;;;;19.17;11.27;;;;;;;;;;5096545;28;20532;-69
2021/09/13 06:56:13;;;;;;;23.03;9.97;;;;;;;;;;5096335;28;20439;-69
2021/09/13 06:58:40;;;;;;;17.80;11.20;;;;;;;;;;5096753;28;20444;-69
2021/09/13 07:01:07;;;;;;;12.73;10.30;;;;;;;;;;5096236;28;20969;-69
2021/09/13 07:03:35;;;;;;;17.30;11.13;;;;;;;;;;5096174;28;20454;-69
2021/09/13 07:06:04;;;;;;;13.57;9.70;;;;;;;;;;5096156;28;20462;-69
2021/09/13 07:08:31;;;;;;;18.73;10.37;;;;;;;;;;5096167;28;20451;-69
2021/09/13 07:10:59;;;;;;;18.77;9.70;;;;;;;;;;5096301;28;20447;-69
2021/09/13 07:13:26;;;;;;;20.23;9.50;;;;;;;;;;5095959;28;20486;-69
2021/09/13 07:15:53;;;;;;;15.73;11.03;;;;;;;;;;5095770;28;20964;-69
2021/09/13 07:18:21;;;;;;;15.47;11.40;;;;;;;;;;5095938;28;20477;-69
2021/09/13 07:20:48;;;;;;;18.23;9.80;;;;;;;;;;5096291;28;20487;-69
2021/09/13 07:23:16;;;;;;;12.03;10.20;;;;;;;;;;5096653;28;20445;-69
2021/09/13 07:25:44;;;;;;;18.20;10.90;;;;;;;;;;5095646;28;20950;-70
2021/09/13 07:28:11;;;;;;;14.10;10.07;;;;;;;;;;5096124;28;20530;-70
2021/09/13 07:30:38;;;;;;;12.90;8.40;;;;;;;;;;5095666;28;20533;-70
2021/09/13 07:33:05;;;;;;;10.50;8.30;;;;;;;;;;5095584;28;20876;-69
2021/09/13 07:35:33;;;;;;;10.70;8.80;;;;;;;;;;5094903;28;20440;-69
2021/09/13 07:38:00;;;;;;;12.20;8.60;;;;;;;;;;5096354;28;20802;-70
2021/09/13 07:40:28;;;;;;;9.90;8.97;;;;;;;;;;5095479;28;20438;-69
2021/09/13 07:42:56;;;;;;;8.70;7.90;;;;;;;;;;5095820;28;20460;-70
2021/09/13 07:45:24;;;;;;;11.20;7.97;;;;;;;;;;5095612;28;20456;-69
2021/09/13 07:47:52;;;;;;;13.70;8.90;;;;;;;;;;5095129;28;20445;-70
2021/09/13 07:50:19;;;;;;;14.17;8.37;;;;;;;;;;5095067;28;20527;-70
2021/09/13 07:52:46;;;;;;;14.30;8.57;;;;;;;;;;5095028;28;20450;-69
2021/09/13 07:55:14;;;;;;;12.50;8.33;;;;;;;;;;5094896;28;20445;-70
2021/09/13 07:57:47;;;;;;;13.53;7.17;;;;;;;;;;5095276;28;20452;-69
2021/09/13 08:00:15;;;;;;;12.23;7.17;;;;;;;;;;5095959;28;20450;-69
2021/09/13 08:02:43;;;;;;;12.03;8.17;;;;;;;;;;5095368;28;21073;-71
2021/09/13 08:05:11;;;;;;;19.33;8.23;;;;;;;;;;5095286;28;20470;-70
2021/09/13 08:07:38;;;;;;;9.90;7.97;;;;;;;;;;5094482;28;20437;-69
2021/09/13 08:10:05;;;;;;;8.43;7.63;;;;;;;;;;5094979;28;20447;-70
2021/09/13 08:12:33;;;;;;;14.87;7.97;;;;;;;;;;5094393;28;20445;-70
2021/09/13 08:15:01;;;;;;;11.83;7.10;;;;;;;;;;5094866;28;20803;-69
2021/09/13 08:17:29;;;;;;;14.23;7.23;;;;;;;;;;5094789;28;20443;-69
2021/09/13 08:19:56;;;;;;;8.63;6.80;;;;;;;;;;5094345;28;20446;-70
2021/09/13 08:22:23;;;;;;;11.17;6.87;;;;;;;;;;5094404;28;20473;-69
2021/09/13 08:24:51;;;;;;;9.63;6.90;;;;;;;;;;5094533;28;20442;-70
2021/09/13 08:27:18;;;;;;;8.93;6.20;;;;;;;;;;5095155;28;20446;-70
2021/09/13 08:29:46;;;;;;;6.77;5.40;;;;;;;;;;5094908;28;20453;-70
2021/09/13 08:32:14;;;;;;;5.63;5.10;;;;;;;;;;5094857;28;20526;-70
2021/09/13 08:34:41;;;;;;;5.07;4.63;;;;;;;;;;5094541;28;20534;-70
2021/09/13 08:37:09;;;;;;;7.07;5.40;;;;;;;;;;5094207;28;20525;-70
2021/09/13 08:39:36;;;;;;;10.73;5.17;;;;;;;;;;5094183;28;20450;-69
2021/09/13 08:42:03;;;;;;;8.57;5.03;;;;;;;;;;5094661;28;20479;-70
2021/09/13 08:44:33;;;;;;;5.27;4.77;;;;;;;;;;5094080;28;20441;-70
2021/09/13 08:47:04;;;;;;;7.80;5.00;;;;;;;;;;5093619;28;20928;-70
2021/09/13 08:49:36;;;;;;;8.03;5.27;;;;;;;;;;5094002;28;20982;-70
2021/09/13 08:52:05;;;;;;;8.03;5.20;;;;;;;;;;5093988;28;20968;-70
2021/09/13 08:54:35;;;;;;;11.83;4.67;;;;;;;;;;5093885;28;20440;-70
2021/09/13 08:57:04;;;;;;;7.40;4.70;;;;;;;;;;5093835;28;20440;-70
2021/09/13 08:59:34;;;;;;;9.70;3.83;;;;;;;;;;5093894;28;20543;-69
2021/09/13 09:02:01;;;;;;;4.13;3.70;;;;;;;;;;5094670;28;20478;-71
2021/09/13 09:04:30;;;;;;;4.20;3.40;;;;;;;;;;5094122;28;20494;-69
2021/09/13 09:07:08;;;;;;;5.73;3.50;;;;;;;;;;5094559;28;20853;-69
2021/09/13 09:09:35;;;;;;;7.50;4.97;;;;;;;;;;5094338;28;20429;-70
2021/09/13 09:12:05;;;;;;;5.13;3.60;;;;;;;;;;5093815;28;20807;-70
2021/09/13 09:14:34;;;;;;;4.83;3.47;;;;;;;;;;5093680;28;20444;-70
2021/09/13 09:17:03;;;;;;;4.97;3.00;;;;;;;;;;5093856;28;20445;-70
2021/09/13 09:19:30;;;;;;;9.77;3.70;;;;;;;;;;5093480;28;20525;-70
2021/09/13 09:21:58;;;;;;;4.30;3.23;;;;;;;;;;5093702;28;20481;-70
2021/09/13 09:24:27;;;;;;;7.37;3.40;;;;;;;;;;5094173;28;20444;-70
2021/09/13 09:27:01;;;;;;;2.00;1.80;;;;;;;;;;5093356;28;20440;-70
2021/09/13 09:29:29;;;;;;;8.43;2.23;;;;;;;;;;5093331;28;20448;-70
2021/09/13 09:31:58;;;;;;;8.50;1.90;;;;;;;;;;5093619;28;20445;-70
2021/09/13 09:34:26;;;;;;;3.53;3.23;;;;;;;;;;5093461;28;20443;-70
2021/09/13 09:37:05;;;;;;;2.90;2.10;;;;;;;;;;5093843;28;20445;-70
2021/09/13 09:39:34;;;;;;;2.70;2.30;;;;;;;;;;5093508;28;20442;-70
2021/09/13 09:42:01;;;;;;;5.23;2.77;;;;;;;;;;5093009;28;20562;-70
2021/09/13 09:44:28;;;;;;;4.20;2.80;;;;;;;;;;5093143;28;20527;-70
2021/09/13 09:47:01;;;;;;;3.43;3.10;;;;;;;;;;5093773;28;20441;-70
2021/09/13 09:49:40;;;;;;;3.67;3.40;;;;;;;;;;5093449;28;21051;-70
2021/09/13 09:52:07;;;;;;;5.97;4.03;;;;;;;;;;5093745;28;20777;-70
2021/09/13 09:54:37;;;;;;;10.07;3.97;;;;;;;;;;5092769;28;20956;-70
2021/09/13 09:57:05;;;;;;;5.63;3.80;;;;;;;;;;5093667;28;20515;-70
2021/09/13 09:59:33;;;;;;;9.90;4.03;;;;;;;;;;5097806;28;20442;-71
2021/09/13 10:02:00;;;;;;;6.33;4.30;;;;;;;;;;5097702;28;20481;-71
2021/09/13 10:04:29;;;;;;;8.27;4.27;;;;;;;;;;5097159;28;20939;-71
2021/09/13 10:06:57;;;;;;;4.30;3.60;;;;;;;;;;5097086;28;20462;-70
2021/09/13 10:09:25;;;;;;;6.57;3.90;;;;;;;;;;5097390;28;20440;-71
2021/09/13 10:11:55;;;;;;;4.03;3.40;;;;;;;;;;5097400;28;20444;-70
2021/09/13 10:14:23;;;;;;;5.13;3.30;;;;;;;;;;5097321;28;20441;-71
2021/09/13 10:16:50;;;;;;;3.30;2.90;;;;;;;;;;5097268;28;20443;-71
2021/09/13 10:19:18;;;;;;;3.60;2.50;;;;;;;;;;5097447;28;20447;-71
2021/09/13 10:21:45;;;;;;;2.37;1.90;;;;;;;;;;5097209;28;20486;-71
2021/09/13 10:24:15;;;;;;;1.77;1.67;;;;;;;;;;5097294;28;20442;-71
2021/09/13 10:26:42;;;;;;;1.53;1.30;;;;;;;;;;5097483;28;20448;-71
2021/09/13 10:29:18;;;;;;;4.93;1.40;;;;;;;;;;5097156;28;20446;-71
2021/09/13 10:31:55;;;;;;;2.17;1.50;;;;;;;;;;5097121;28;20443;-71
2021/09/13 10:34:23;;;;;;;2.30;1.57;;;;;;;;;;5096621;28;20452;-70
2021/09/13 10:37:07;;;;;;;3.70;1.73;;;;;;;;;;5096548;28;20454;-71
2021/09/13 10:39:53;;;;;;;6.73;2.00;;;;;;;;;;5096956;28;20905;-71
2021/09/13 10:42:33;;;;;;;2.33;1.47;;;;;;;;;;5096523;28;20578;-71
2021/09/13 10:45:31;;;;;;;1.70;1.60;;;;;;;;;;5096780;28;20511;-71
2021/09/13 10:48:10;;;;;;;1.40;1.30;;;;;;;;;;5014526;28;20494;-71
2021/09/13 10:50:45;;;;;;;2.60;1.63;;;;;;;;;;5084525;28;20473;-71
2021/09/13 10:53:31;;;;;;;2.57;1.70;;;;;;;;;;5096295;28;20444;-71
2021/09/13 10:56:01;;;;;;;6.87;1.90;;;;;;;;;;5096477;28;20446;-71
2021/09/13 10:58:43;;;;;;;3.80;1.70;;;;;;;;;;5096123;28;20485;-71
2021/09/13 11:01:11;;;;;;;7.47;1.63;;;;;;;;;;5097531;28;20489;-71
2021/09/13 11:03:43;;;;;;;2.00;1.80;;;;;;;;;;5096297;28;20551;-71
2021/09/13 11:06:30;;;;;;;1.83;1.70;;;;;;;;;;5096646;28;20870;-71
2021/09/13 11:08:59;;;;;;;13.07;2.67;;;;;;;;;;5095735;28;20489;-71
2021/09/13 11:11:27;;;;;;;2.07;1.80;;;;;;;;;;5096137;28;20491;-70
2021/09/13 11:13:59;;;;;;;2.10;1.50;;;;;;;;;;5096920;28;20443;-72
2021/09/13 11:16:27;;;;;;;2.00;1.33;;;;;;;;;;5096183;28;20529;-70
2021/09/13 11:18:56;;;;;;;1.50;1.40;;;;;;;;;;5095783;28;20466;-70
2021/09/13 11:21:24;;;;;;;6.37;2.33;;;;;;;;;;5095485;28;20437;-70
2021/09/13 11:23:52;;;;;;;6.10;1.97;;;;;;;;;;5095970;28;20491;-70
2021/09/13 11:26:20;;;;;;;2.20;1.93;;;;;;;;;;5095944;28;20463;-70
2021/09/13 11:28:54;;;;;;;1.80;1.50;;;;;;;;;;5095719;28;20810;-70
2021/09/13 11:31:28;;;;;;;2.23;1.83;;;;;;;;;;5096346;28;20776;-70
2021/09/13 11:33:57;;;;;;;2.20;1.37;;;;;;;;;;5095479;28;20438;-70
2021/09/13 11:36:25;;;;;;;6.83;2.20;;;;;;;;;;5095412;28;20931;-70
2021/09/13 11:38:57;;;;;;;3.37;1.90;;;;;;;;;;5095695;28;20491;-70
2021/09/13 11:41:24;;;;;;;4.83;1.60;;;;;;;;;;5095579;28;20446;-70
2021/09/13 11:44:01;;;;;;;3.70;2.10;;;;;;;;;;5095151;28;20475;-70
2021/09/13 11:46:29;;;;;;;8.13;2.57;;;;;;;;;;5096028;28;20422;-70
2021/09/13 11:49:14;;;;;;;6.30;2.33;;;;;;;;;;5095311;28;20957;-70
2021/09/13 11:52:00;;;;;;;23.70;4.77;;;;;;;;;;5095086;28;20430;-70
2021/09/13 11:54:34;;;;;;;4.93;1.80;;;;;;;;;;5095232;28;20453;-70
2021/09/13 11:57:02;;;;;;;2.40;1.57;;;;;;;;;;5095463;28;20424;-70
2021/09/13 11:59:29;;;;;;;2.30;1.40;;;;;;;;;;5095419;28;20454;-70
2021/09/13 12:01:57;;;;;;;1.60;1.50;;;;;;;;;;5094818;28;20482;-70
2021/09/13 12:04:27;;;;;;;11.23;2.50;;;;;;;;;;5095147;28;20926;-70
2021/09/13 12:07:05;;;;;;;6.27;2.07;;;;;;;;;;5095150;28;20446;-70
2021/09/13 12:09:33;;;;;;;3.30;2.03;;;;;;;;;;5095485;28;20438;-70
2021/09/13 12:12:00;;;;;;;4.00;1.70;;;;;;;;;;5094981;28;20437;-71
2021/09/13 12:14:28;;;;;;;6.40;1.80;;;;;;;;;;5094983;28;20447;-71
2021/09/13 12:17:05;;;;;;;2.17;1.93;;;;;;;;;;5094562;28;20438;-71
2021/09/13 12:19:34;;;;;;;2.60;1.77;;;;;;;;;;5094620;28;20425;-72
2021/09/13 12:22:01;;;;;;;2.50;2.30;;;;;;;;;;5093569;28;20460;-71
2021/09/13 12:24:29;;;;;;;2.80;2.20;;;;;;;;;;5094469;28;20541;-70
2021/09/13 12:26:56;;;;;;;1.93;1.70;;;;;;;;;;5094761;28;20801;-70
2021/09/13 12:29:24;;;;;;;1.30;1.23;;;;;;;;;;5094346;28;20450;-71
2021/09/13 12:31:51;;;;;;;2.10;1.77;;;;;;;;;;5095112;28;20446;-71
2021/09/13 12:34:18;;;;;;;1.70;1.60;;;;;;;;;;5094237;28;20453;-71
2021/09/13 12:36:46;;;;;;;2.77;1.67;;;;;;;;;;5094290;28;20452;-71
2021/09/13 12:39:14;;;;;;;2.30;1.43;;;;;;;;;;5094249;28;20450;-71
2021/09/13 12:41:42;;;;;;;1.50;1.30;;;;;;;;;;5094994;28;20493;-71
2021/09/13 12:44:17;;;;;;;2.67;2.47;;;;;;;;;;5094140;28;20475;-71
2021/09/13 12:46:46;;;;;;;1.50;1.40;;;;;;;;;;5094481;28;20564;-77
2021/09/13 12:49:14;;;;;;;12.47;1.50;;;;;;;;;;5094316;28;20466;-74
2021/09/13 12:51:41;;;;;;;3.13;1.10;;;;;;;;;;5094558;28;20446;-77
2021/09/13 12:54:10;;;;;;;2.00;1.80;;;;;;;;;;5094282;28;20450;-76
2021/09/13 12:56:48;;;;;;;2.80;2.60;;;;;;;;;;5094803;28;20440;-76
2021/09/13 12:59:18;;;;;;;2.80;2.13;;;;;;;;;;5093967;28;20457;-73
2021/09/13 13:01:46;;;;;;;35.93;3.83;;;;;;;;;;5093846;28;20517;-75
2021/09/13 13:04:13;;;;;;;4.60;1.83;;;;;;;;;;5094025;28;20570;-75
2021/09/13 13:06:41;;;;;;;4.53;1.80;;;;;;;;;;5094731;28;20439;-71
2021/09/13 13:09:11;;;;;;;1.83;1.63;;;;;;;;;;5093991;28;20438;-71
2021/09/13 13:11:40;;;;;;;2.90;1.50;;;;;;;;;;5092967;28;20868;-71
2021/09/13 13:14:07;;;;;;;2.70;1.53;;;;;;;;;;5092335;28;20443;-71
2021/09/13 13:16:35;;;;;;;3.00;1.70;;;;;;;;;;5092799;28;20451;-71
2021/09/13 13:19:03;;;;;;;1.63;1.50;;;;;;;;;;5092559;28;20496;-71
2021/09/13 13:21:30;;;;;;;2.80;1.77;;;;;;;;;;5092982;28;20534;-71
2021/09/13 13:23:57;;;;;;;1.30;1.27;;;;;;;;;;5093001;28;20481;-72
2021/09/13 13:26:26;;;;;;;1.43;1.33;;;;;;;;;;5093175;28;20475;-71
2021/09/13 13:28:53;;;;;;;1.47;1.37;;;;;;;;;;5093656;28;20795;-71
2021/09/13 13:31:20;;;;;;;1.87;1.60;;;;;;;;;;5093369;28;20440;-73
2021/09/13 13:33:47;;;;;;;2.40;1.40;;;;;;;;;;5093369;28;20499;-71
2021/09/13 13:36:16;;;;;;;1.70;1.60;;;;;;;;;;5093220;28;20523;-72
2021/09/13 13:38:43;;;;;;;1.87;1.77;;;;;;;;;;5093692;28;20467;-73
2021/09/13 13:41:11;;;;;;;5.33;1.80;;;;;;;;;;5093038;28;20442;-71
2021/09/13 13:43:39;;;;;;;1.87;1.67;;;;;;;;;;5091537;28;20831;-72
2021/09/13 13:46:06;;;;;;;2.40;2.20;;;;;;;;;;5093544;28;20442;-71
2021/09/13 13:48:34;;;;;;;1.87;1.60;;;;;;;;;;5094216;28;20533;-73
2021/09/13 13:51:01;;;;;;;1.50;1.40;;;;;;;;;;5092521;28;20482;-73
2021/09/13 13:53:29;;;;;;;1.73;1.63;;;;;;;;;;5093081;28;20459;-72
2021/09/13 13:55:56;;;;;;;1.90;1.80;;;;;;;;;;5093170;28;20452;-73
2021/09/13 13:58:23;;;;;;;3.53;1.43;;;;;;;;;;5093146;28;20926;-73
2021/09/13 14:00:53;;;;;;;1.40;1.30;;;;;;;;;;5093878;28;20439;-72
2021/09/13 14:03:20;;;;;;;8.03;1.67;;;;;;;;;;5093085;28;20482;-72
2021/09/13 14:05:48;;;;;;;1.63;1.50;;;;;;;;;;5092936;28;20950;-73
2021/09/13 14:08:15;;;;;;;2.00;1.47;;;;;;;;;;5092995;28;20855;-71
2021/09/13 14:10:42;;;;;;;3.00;1.70;;;;;;;;;;5093358;28;20438;-71
2021/09/13 14:13:10;;;;;;;4.57;1.60;;;;;;;;;;5092870;28;20463;-73
2021/09/13 14:15:37;;;;;;;1.87;1.77;;;;;;;;;;5091376;28;20470;-73
2021/09/13 14:18:06;;;;;;;3.43;1.70;;;;;;;;;;5093178;28;20798;-73
2021/09/13 14:20:33;;;;;;;3.83;2.00;;;;;;;;;;5092877;28;20453;-73
2021/09/13 14:23:02;;;;;;;3.63;1.70;;;;;;;;;;5093206;28;20503;-73
2021/09/13 14:25:31;;;;;;;1.90;1.80;;;;;;;;;;5092898;28;20463;-72
2021/09/13 14:27:59;;;;;;;5.80;4.97;;;;;;;;;;5092816;28;20472;-73
2021/09/13 14:30:27;;;;;;;6.17;1.90;;;;;;;;;;5092978;28;20442;-73
2021/09/13 14:32:55;;;;;;;3.43;2.87;;;;;;;;;;5092699;28;20794;-73
2021/09/13 14:35:23;;;;;;;2.40;1.30;;;;;;;;;;5092458;28;20483;-73
2021/09/13 14:37:51;;;;;;;2.70;1.90;;;;;;;;;;5092602;28;20441;-73
2021/09/13 14:40:18;;;;;;;3.63;1.80;;;;;;;;;;5092081;28;20948;-73
2021/09/13 14:42:45;;;;;;;5.40;1.80;;;;;;;;;;5092206;28;20539;-73